sensor_id;sensor_type;location;lat;lon;timestamp;P1;durP1;ratioP1;P2;durP2;ratioP2
18780;SDS011;9519;51.890;8.970;2023-05-10T00:00:32;10.10;;;9.05;;
18780;SDS011;9519;51.890;8.970;2023-05-10T00:05:34;10.82;;;9.02;;
18780;SDS011;9519;51.890;8.970;2023-05-10T00:10:36;10.13;;;9.02;;
18780;SDS011;9519;51.890;8.970;2023-05-10T00:15:41;10.60;;;9.27;;
18780;SDS011;9519;51.890;8.970;2023-05-10T00:20:43;11.47;;;9.97;;
18780;SDS011;9519;51.890;8.970;2023-05-10T00:25:46;11.53;;;9.63;;
18780;SDS011;9519;51.890;8.970;2023-05-10T00:30:49;12.35;;;11.02;;
18780;SDS011;9519;51.890;8.970;2023-05-10T00:35:51;12.95;;;11.00;;
18780;SDS011;9519;51.890;8.970;2023-05-10T00:40:53;14.32;;;11.60;;
18780;SDS011;9519;51.890;8.970;2023-05-10T00:45:57;13.93;;;12.52;;
18780;SDS011;9519;51.890;8.970;2023-05-10T00:50:59;14.13;;;12.63;;
18780;SDS011;9519;51.890;8.970;2023-05-10T00:56:02;13.98;;;11.50;;
18780;SDS011;9519;51.890;8.970;2023-05-10T01:01:06;13.32;;;11.93;;
18780;SDS011;9519;51.890;8.970;2023-05-10T01:06:10;12.93;;;11.63;;
18780;SDS011;9519;51.890;8.970;2023-05-10T01:11:12;14.13;;;12.60;;
18780;SDS011;9519;51.890;8.970;2023-05-10T01:16:16;14.10;;;12.60;;
18780;SDS011;9519;51.890;8.970;2023-05-10T01:21:20;14.23;;;12.73;;
18780;SDS011;9519;51.890;8.970;2023-05-10T01:32:44;13.75;;;12.35;;
18780;SDS011;9519;51.890;8.970;2023-05-10T01:37:57;15.27;;;13.57;;
18780;SDS011;9519;51.890;8.970;2023-05-10T01:43:11;14.10;;;12.40;;
18780;SDS011;9519;51.890;8.970;2023-05-10T01:48:25;15.37;;;13.77;;
18780;SDS011;9519;51.890;8.970;2023-05-10T01:53:30;15.53;;;13.90;;
18780;SDS011;9519;51.890;8.970;2023-05-10T01:58:36;15.80;;;14.23;;
18780;SDS011;9519;51.890;8.970;2023-05-10T02:03:44;15.87;;;14.17;;
18780;SDS011;9519;51.890;8.970;2023-05-10T02:08:47;15.60;;;13.88;;
18780;SDS011;9519;51.890;8.970;2023-05-10T02:13:53;14.90;;;13.30;;
18780;SDS011;9519;51.890;8.970;2023-05-10T02:19:00;16.27;;;14.60;;
18780;SDS011;9519;51.890;8.970;2023-05-10T02:24:04;16.30;;;14.50;;
18780;SDS011;9519;51.890;8.970;2023-05-10T02:29:08;16.40;;;14.73;;
18780;SDS011;9519;51.890;8.970;2023-05-10T02:34:14;16.47;;;14.63;;
18780;SDS011;9519;51.890;8.970;2023-05-10T02:39:16;17.45;;;15.13;;
18780;SDS011;9519;51.890;8.970;2023-05-10T02:44:20;12.73;;;11.35;;
18780;SDS011;9519;51.890;8.970;2023-05-10T02:49:26;9.07;;;4.72;;
18780;SDS011;9519;51.890;8.970;2023-05-10T02:54:29;5.73;;;4.10;;
18780;SDS011;9519;51.890;8.970;2023-05-10T02:59:42;10.97;;;8.40;;
18780;SDS011;9519;51.890;8.970;2023-05-10T03:04:46;7.00;;;5.23;;
18780;SDS011;9519;51.890;8.970;2023-05-10T03:09:48;5.53;;;3.27;;
18780;SDS011;9519;51.890;8.970;2023-05-10T03:14:53;5.03;;;2.80;;
18780;SDS011;9519;51.890;8.970;2023-05-10T03:20:06;3.83;;;2.50;;
18780;SDS011;9519;51.890;8.970;2023-05-10T03:25:12;3.83;;;2.37;;
18780;SDS011;9519;51.890;8.970;2023-05-10T03:30:18;3.93;;;2.13;;
18780;SDS011;9519;51.890;8.970;2023-05-10T03:35:26;3.33;;;2.30;;
18780;SDS011;9519;51.890;8.970;2023-05-10T03:40:28;3.70;;;2.33;;
18780;SDS011;9519;51.890;8.970;2023-05-10T03:45:31;3.93;;;2.90;;
18780;SDS011;9519;51.890;8.970;2023-05-10T03:50:35;4.47;;;3.03;;
18780;SDS011;9519;51.890;8.970;2023-05-10T03:55:37;8.50;;;6.57;;
18780;SDS011;9519;51.890;8.970;2023-05-10T04:00:39;9.47;;;8.10;;
18780;SDS011;9519;51.890;8.970;2023-05-10T04:05:46;13.67;;;8.60;;
18780;SDS011;9519;51.890;8.970;2023-05-10T04:10:48;13.57;;;9.67;;
18780;SDS011;9519;51.890;8.970;2023-05-10T04:15:53;11.33;;;9.77;;
18780;SDS011;9519;51.890;8.970;2023-05-10T04:20:57;11.87;;;10.53;;
18780;SDS011;9519;51.890;8.970;2023-05-10T04:25:59;11.57;;;10.37;;
18780;SDS011;9519;51.890;8.970;2023-05-10T04:31:02;11.73;;;10.53;;
18780;SDS011;9519;51.890;8.970;2023-05-10T04:36:06;12.93;;;11.53;;
18780;SDS011;9519;51.890;8.970;2023-05-10T04:41:09;12.43;;;11.13;;
18780;SDS011;9519;51.890;8.970;2023-05-10T04:46:12;13.63;;;12.20;;
18780;SDS011;9519;51.890;8.970;2023-05-10T04:51:15;12.00;;;10.70;;
18780;SDS011;9519;51.890;8.970;2023-05-10T04:56:17;14.17;;;11.73;;
18780;SDS011;9519;51.890;8.970;2023-05-10T05:01:19;12.93;;;11.23;;
18780;SDS011;9519;51.890;8.970;2023-05-10T05:06:24;10.87;;;9.50;;
18780;SDS011;9519;51.890;8.970;2023-05-10T05:11:27;11.80;;;8.47;;
18780;SDS011;9519;51.890;8.970;2023-05-10T05:16:30;8.30;;;7.03;;
18780;SDS011;9519;51.890;8.970;2023-05-10T05:21:33;3.50;;;2.00;;
18780;SDS011;9519;51.890;8.970;2023-05-10T05:26:35;2.83;;;1.53;;
18780;SDS011;9519;51.890;8.970;2023-05-10T05:31:37;1.20;;;0.90;;
18780;SDS011;9519;51.890;8.970;2023-05-10T05:36:41;2.33;;;0.90;;
18780;SDS011;9519;51.890;8.970;2023-05-10T05:41:43;1.50;;;0.97;;
18780;SDS011;9519;51.890;8.970;2023-05-10T05:46:46;1.67;;;0.97;;
18780;SDS011;9519;51.890;8.970;2023-05-10T05:51:51;2.47;;;1.10;;
18780;SDS011;9519;51.890;8.970;2023-05-10T05:56:53;3.13;;;1.00;;
18780;SDS011;9519;51.890;8.970;2023-05-10T06:01:56;2.33;;;0.90;;
18780;SDS011;9519;51.890;8.970;2023-05-10T06:07:00;2.20;;;1.10;;
18780;SDS011;9519;51.890;8.970;2023-05-10T06:12:02;2.97;;;1.30;;
18780;SDS011;9519;51.890;8.970;2023-05-10T06:17:05;2.33;;;1.20;;
18780;SDS011;9519;51.890;8.970;2023-05-10T06:22:08;3.60;;;1.70;;
18780;SDS011;9519;51.890;8.970;2023-05-10T06:27:11;6.43;;;1.80;;
18780;SDS011;9519;51.890;8.970;2023-05-10T06:32:13;3.23;;;1.70;;
18780;SDS011;9519;51.890;8.970;2023-05-10T06:37:16;2.63;;;1.83;;
18780;SDS011;9519;51.890;8.970;2023-05-10T06:42:18;3.37;;;1.77;;
18780;SDS011;9519;51.890;8.970;2023-05-10T06:47:20;3.20;;;2.00;;
18780;SDS011;9519;51.890;8.970;2023-05-10T06:52:24;3.30;;;2.17;;
18780;SDS011;9519;51.890;8.970;2023-05-10T06:57:26;4.13;;;2.23;;
18780;SDS011;9519;51.890;8.970;2023-05-10T07:02:28;4.10;;;2.63;;
18780;SDS011;9519;51.890;8.970;2023-05-10T07:07:31;3.70;;;2.07;;
18780;SDS011;9519;51.890;8.970;2023-05-10T07:12:33;3.57;;;2.00;;
18780;SDS011;9519;51.890;8.970;2023-05-10T07:17:35;3.10;;;2.00;;
18780;SDS011;9519;51.890;8.970;2023-05-10T07:22:39;4.30;;;2.80;;
18780;SDS011;9519;51.890;8.970;2023-05-10T07:27:41;3.47;;;2.00;;
18780;SDS011;9519;51.890;8.970;2023-05-10T07:32:43;3.53;;;1.60;;
18780;SDS011;9519;51.890;8.970;2023-05-10T07:37:46;2.83;;;1.50;;
18780;SDS011;9519;51.890;8.970;2023-05-10T07:42:49;2.57;;;1.43;;
18780;SDS011;9519;51.890;8.970;2023-05-10T07:47:51;3.27;;;1.60;;
18780;SDS011;9519;51.890;8.970;2023-05-10T07:52:54;4.60;;;1.73;;
18780;SDS011;9519;51.890;8.970;2023-05-10T07:57:56;3.77;;;1.50;;
18780;SDS011;9519;51.890;8.970;2023-05-10T08:03:01;3.83;;;2.23;;
18780;SDS011;9519;51.890;8.970;2023-05-10T08:08:04;10.77;;;3.77;;
18780;SDS011;9519;51.890;8.970;2023-05-10T08:13:06;6.73;;;3.63;;
18780;SDS011;9519;51.890;8.970;2023-05-10T08:18:08;6.47;;;3.87;;
18780;SDS011;9519;51.890;8.970;2023-05-10T08:23:12;8.53;;;4.30;;
18780;SDS011;9519;51.890;8.970;2023-05-10T08:28:14;9.27;;;4.47;;
18780;SDS011;9519;51.890;8.970;2023-05-10T08:33:17;9.13;;;5.27;;
18780;SDS011;9519;51.890;8.970;2023-05-10T08:38:21;13.37;;;6.90;;
18780;SDS011;9519;51.890;8.970;2023-05-10T08:43:23;14.43;;;7.40;;
18780;SDS011;9519;51.890;8.970;2023-05-10T08:48:29;11.43;;;7.53;;
18780;SDS011;9519;51.890;8.970;2023-05-10T08:53:35;14.93;;;8.70;;
18780;SDS011;9519;51.890;8.970;2023-05-10T08:58:38;15.27;;;9.93;;
18780;SDS011;9519;51.890;8.970;2023-05-10T09:03:40;18.27;;;10.83;;
18780;SDS011;9519;51.890;8.970;2023-05-10T09:08:44;16.57;;;10.47;;
18780;SDS011;9519;51.890;8.970;2023-05-10T09:13:47;21.80;;;11.27;;
18780;SDS011;9519;51.890;8.970;2023-05-10T09:18:52;17.00;;;11.70;;
18780;SDS011;9519;51.890;8.970;2023-05-10T09:23:55;13.33;;;8.43;;
18780;SDS011;9519;51.890;8.970;2023-05-10T09:28:58;14.03;;;9.27;;
18780;SDS011;9519;51.890;8.970;2023-05-10T09:34:02;13.70;;;10.13;;
18780;SDS011;9519;51.890;8.970;2023-05-10T09:39:06;16.57;;;11.53;;
18780;SDS011;9519;51.890;8.970;2023-05-10T09:44:08;17.33;;;13.27;;
18780;SDS011;9519;51.890;8.970;2023-05-10T09:49:11;18.73;;;15.47;;
18780;SDS011;9519;51.890;8.970;2023-05-10T09:54:18;15.47;;;10.87;;
18780;SDS011;9519;51.890;8.970;2023-05-10T09:59:21;13.70;;;8.63;;
18780;SDS011;9519;51.890;8.970;2023-05-10T10:04:27;13.60;;;9.50;;
18780;SDS011;9519;51.890;8.970;2023-05-10T10:09:31;13.37;;;10.43;;
18780;SDS011;9519;51.890;8.970;2023-05-10T10:14:34;14.73;;;12.03;;
18780;SDS011;9519;51.890;8.970;2023-05-10T10:19:36;18.10;;;13.63;;
18780;SDS011;9519;51.890;8.970;2023-05-10T10:24:41;22.13;;;16.33;;
18780;SDS011;9519;51.890;8.970;2023-05-10T10:29:58;20.37;;;14.53;;
18780;SDS011;9519;51.890;8.970;2023-05-10T10:35:11;16.10;;;12.43;;
18780;SDS011;9519;51.890;8.970;2023-05-10T10:40:28;19.03;;;13.83;;
18780;SDS011;9519;51.890;8.970;2023-05-10T10:45:31;19.13;;;14.30;;
18780;SDS011;9519;51.890;8.970;2023-05-10T10:50:42;21.67;;;14.87;;
18780;SDS011;9519;51.890;8.970;2023-05-10T10:55:47;24.90;;;15.77;;
18780;SDS011;9519;51.890;8.970;2023-05-10T11:00:50;20.83;;;14.87;;
18780;SDS011;9519;51.890;8.970;2023-05-10T11:06:11;21.97;;;14.20;;
18780;SDS011;9519;51.890;8.970;2023-05-10T11:11:15;18.00;;;13.30;;
18780;SDS011;9519;51.890;8.970;2023-05-10T11:16:17;16.57;;;12.30;;
18780;SDS011;9519;51.890;8.970;2023-05-10T11:21:21;14.52;;;10.65;;
18780;SDS011;9519;51.890;8.970;2023-05-10T11:26:25;19.90;;;12.10;;
18780;SDS011;9519;51.890;8.970;2023-05-10T11:31:33;15.00;;;10.77;;
18780;SDS011;9519;51.890;8.970;2023-05-10T11:36:35;12.93;;;10.27;;
18780;SDS011;9519;51.890;8.970;2023-05-10T11:41:39;12.65;;;8.98;;
18780;SDS011;9519;51.890;8.970;2023-05-10T11:46:41;16.92;;;9.65;;
18780;SDS011;9519;51.890;8.970;2023-05-10T11:51:43;15.02;;;9.40;;
18780;SDS011;9519;51.890;8.970;2023-05-10T11:56:47;13.98;;;9.02;;
18780;SDS011;9519;51.890;8.970;2023-05-10T12:01:51;12.23;;;8.98;;
18780;SDS011;9519;51.890;8.970;2023-05-10T12:06:53;11.75;;;8.38;;
18780;SDS011;9519;51.890;8.970;2023-05-10T12:11:56;12.23;;;8.30;;
18780;SDS011;9519;51.890;8.970;2023-05-10T12:17:01;19.73;;;10.70;;
18780;SDS011;9519;51.890;8.970;2023-05-10T12:22:04;15.65;;;7.93;;
18780;SDS011;9519;51.890;8.970;2023-05-10T12:27:08;13.20;;;8.10;;
18780;SDS011;9519;51.890;8.970;2023-05-10T12:32:12;15.30;;;9.10;;
18780;SDS011;9519;51.890;8.970;2023-05-10T12:37:14;11.50;;;8.93;;
18780;SDS011;9519;51.890;8.970;2023-05-10T12:42:18;13.90;;;9.98;;
18780;SDS011;9519;51.890;8.970;2023-05-10T12:47:20;16.85;;;10.35;;
18780;SDS011;9519;51.890;8.970;2023-05-10T12:52:22;16.15;;;10.30;;
18780;SDS011;9519;51.890;8.970;2023-05-10T12:57:25;21.08;;;10.68;;
18780;SDS011;9519;51.890;8.970;2023-05-10T13:02:28;13.18;;;5.93;;
18780;SDS011;9519;51.890;8.970;2023-05-10T13:07:30;8.25;;;4.60;;
18780;SDS011;9519;51.890;8.970;2023-05-10T13:12:33;10.65;;;4.90;;
18780;SDS011;9519;51.890;8.970;2023-05-10T13:17:35;10.02;;;5.90;;
18780;SDS011;9519;51.890;8.970;2023-05-10T13:22:38;11.17;;;6.93;;
18780;SDS011;9519;51.890;8.970;2023-05-10T13:27:43;9.85;;;6.90;;
18780;SDS011;9519;51.890;8.970;2023-05-10T13:32:45;12.13;;;7.95;;
18780;SDS011;9519;51.890;8.970;2023-05-10T13:37:47;16.20;;;9.60;;
18780;SDS011;9519;51.890;8.970;2023-05-10T13:42:51;13.20;;;8.40;;
18780;SDS011;9519;51.890;8.970;2023-05-10T13:47:53;16.88;;;9.98;;
18780;SDS011;9519;51.890;8.970;2023-05-10T13:52:55;14.53;;;8.73;;
18780;SDS011;9519;51.890;8.970;2023-05-10T13:57:58;15.23;;;9.50;;
18780;SDS011;9519;51.890;8.970;2023-05-10T14:03:00;14.55;;;9.32;;
18780;SDS011;9519;51.890;8.970;2023-05-10T14:08:02;14.88;;;8.82;;
18780;SDS011;9519;51.890;8.970;2023-05-10T14:13:06;13.77;;;8.38;;
18780;SDS011;9519;51.890;8.970;2023-05-10T14:18:08;11.98;;;8.43;;
18780;SDS011;9519;51.890;8.970;2023-05-10T14:23:10;13.32;;;9.05;;
18780;SDS011;9519;51.890;8.970;2023-05-10T14:28:14;7.38;;;4.82;;
18780;SDS011;9519;51.890;8.970;2023-05-10T14:33:17;7.70;;;4.93;;
18780;SDS011;9519;51.890;8.970;2023-05-10T14:38:19;12.65;;;7.28;;
18780;SDS011;9519;51.890;8.970;2023-05-10T14:43:22;15.35;;;10.57;;
18780;SDS011;9519;51.890;8.970;2023-05-10T14:48:24;18.40;;;11.73;;
18780;SDS011;9519;51.890;8.970;2023-05-10T14:53:26;16.67;;;11.38;;
18780;SDS011;9519;51.890;8.970;2023-05-10T14:58:30;19.60;;;12.75;;
18780;SDS011;9519;51.890;8.970;2023-05-10T15:03:32;16.63;;;12.50;;
18780;SDS011;9519;51.890;8.970;2023-05-10T15:08:34;17.02;;;12.13;;
18780;SDS011;9519;51.890;8.970;2023-05-10T15:13:37;13.38;;;8.63;;
18780;SDS011;9519;51.890;8.970;2023-05-10T15:18:39;10.13;;;5.80;;
18780;SDS011;9519;51.890;8.970;2023-05-10T15:23:41;6.53;;;4.43;;
18780;SDS011;9519;51.890;8.970;2023-05-10T15:28:45;7.88;;;4.80;;
18780;SDS011;9519;51.890;8.970;2023-05-10T15:33:47;6.68;;;3.90;;
18780;SDS011;9519;51.890;8.970;2023-05-10T15:38:49;10.90;;;5.80;;
18780;SDS011;9519;51.890;8.970;2023-05-10T15:43:53;8.80;;;5.88;;
18780;SDS011;9519;51.890;8.970;2023-05-10T15:48:56;13.10;;;9.77;;
18780;SDS011;9519;51.890;8.970;2023-05-10T15:53:59;17.02;;;10.73;;
18780;SDS011;9519;51.890;8.970;2023-05-10T15:59:03;11.57;;;7.27;;
18780;SDS011;9519;51.890;8.970;2023-05-10T16:04:07;23.40;;;11.60;;
18780;SDS011;9519;51.890;8.970;2023-05-10T16:09:09;9.73;;;5.10;;
18780;SDS011;9519;51.890;8.970;2023-05-10T16:14:13;8.98;;;5.43;;
18780;SDS011;9519;51.890;8.970;2023-05-10T16:19:16;11.30;;;5.82;;
18780;SDS011;9519;51.890;8.970;2023-05-10T16:24:18;9.93;;;6.20;;
18780;SDS011;9519;51.890;8.970;2023-05-10T16:29:21;8.95;;;5.53;;
18780;SDS011;9519;51.890;8.970;2023-05-10T16:34:23;9.52;;;3.88;;
18780;SDS011;9519;51.890;8.970;2023-05-10T16:39:26;9.88;;;4.90;;
18780;SDS011;9519;51.890;8.970;2023-05-10T16:44:29;10.32;;;6.05;;
18780;SDS011;9519;51.890;8.970;2023-05-10T16:49:32;9.05;;;5.40;;
18780;SDS011;9519;51.890;8.970;2023-05-10T16:54:35;7.90;;;5.22;;
18780;SDS011;9519;51.890;8.970;2023-05-10T16:59:39;9.23;;;5.65;;
18780;SDS011;9519;51.890;8.970;2023-05-10T17:04:41;9.23;;;4.63;;
18780;SDS011;9519;51.890;8.970;2023-05-10T17:09:43;6.97;;;4.40;;
18780;SDS011;9519;51.890;8.970;2023-05-10T17:14:48;7.70;;;4.40;;
18780;SDS011;9519;51.890;8.970;2023-05-10T17:19:50;8.60;;;4.45;;
18780;SDS011;9519;51.890;8.970;2023-05-10T17:24:52;15.25;;;8.38;;
18780;SDS011;9519;51.890;8.970;2023-05-10T17:29:56;14.77;;;8.75;;
18780;SDS011;9519;51.890;8.970;2023-05-10T17:34:58;12.10;;;8.10;;
18780;SDS011;9519;51.890;8.970;2023-05-10T17:40:00;14.77;;;9.85;;
18780;SDS011;9519;51.890;8.970;2023-05-10T17:45:06;19.40;;;12.23;;
18780;SDS011;9519;51.890;8.970;2023-05-10T17:50:10;21.90;;;14.17;;
18780;SDS011;9519;51.890;8.970;2023-05-10T17:55:12;18.03;;;12.63;;
18780;SDS011;9519;51.890;8.970;2023-05-10T18:00:16;17.23;;;12.07;;
18780;SDS011;9519;51.890;8.970;2023-05-10T18:05:18;17.13;;;10.77;;
18780;SDS011;9519;51.890;8.970;2023-05-10T18:10:22;15.83;;;11.00;;
18780;SDS011;9519;51.890;8.970;2023-05-10T18:15:26;15.75;;;11.35;;
18780;SDS011;9519;51.890;8.970;2023-05-10T18:20:29;14.55;;;10.48;;
18780;SDS011;9519;51.890;8.970;2023-05-10T18:25:31;16.37;;;10.47;;
18780;SDS011;9519;51.890;8.970;2023-05-10T18:30:34;15.10;;;11.07;;
18780;SDS011;9519;51.890;8.970;2023-05-10T18:35:37;16.60;;;12.80;;
18780;SDS011;9519;51.890;8.970;2023-05-10T18:40:40;18.42;;;12.55;;
18780;SDS011;9519;51.890;8.970;2023-05-10T18:45:43;17.40;;;12.37;;
18780;SDS011;9519;51.890;8.970;2023-05-10T18:50:46;16.67;;;12.33;;
18780;SDS011;9519;51.890;8.970;2023-05-10T18:55:53;16.07;;;12.00;;
18780;SDS011;9519;51.890;8.970;2023-05-10T19:00:59;16.70;;;12.53;;
18780;SDS011;9519;51.890;8.970;2023-05-10T19:06:01;17.73;;;12.97;;
18780;SDS011;9519;51.890;8.970;2023-05-10T19:11:03;19.70;;;13.37;;
18780;SDS011;9519;51.890;8.970;2023-05-10T19:16:09;15.30;;;11.73;;
18780;SDS011;9519;51.890;8.970;2023-05-10T19:21:13;17.77;;;12.67;;
18780;SDS011;9519;51.890;8.970;2023-05-10T19:26:15;16.73;;;12.00;;
18780;SDS011;9519;51.890;8.970;2023-05-10T19:31:19;15.43;;;12.47;;
18780;SDS011;9519;51.890;8.970;2023-05-10T19:36:22;16.87;;;11.60;;
18780;SDS011;9519;51.890;8.970;2023-05-10T19:41:24;15.33;;;11.60;;
18780;SDS011;9519;51.890;8.970;2023-05-10T19:46:27;17.27;;;12.87;;
18780;SDS011;9519;51.890;8.970;2023-05-10T19:51:30;18.97;;;12.63;;
18780;SDS011;9519;51.890;8.970;2023-05-10T19:56:32;17.93;;;12.97;;
18780;SDS011;9519;51.890;8.970;2023-05-10T20:01:35;16.97;;;12.27;;
18780;SDS011;9519;51.890;8.970;2023-05-10T20:06:37;18.87;;;13.10;;
18780;SDS011;9519;51.890;8.970;2023-05-10T20:11:39;17.60;;;11.87;;
18780;SDS011;9519;51.890;8.970;2023-05-10T20:16:43;16.90;;;11.93;;
18780;SDS011;9519;51.890;8.970;2023-05-10T20:21:45;17.40;;;12.37;;
18780;SDS011;9519;51.890;8.970;2023-05-10T20:26:47;19.07;;;11.10;;
18780;SDS011;9519;51.890;8.970;2023-05-10T20:31:50;16.70;;;12.03;;
18780;SDS011;9519;51.890;8.970;2023-05-10T20:36:52;17.77;;;12.93;;
18780;SDS011;9519;51.890;8.970;2023-05-10T20:41:54;17.90;;;13.37;;
18780;SDS011;9519;51.890;8.970;2023-05-10T20:46:58;17.40;;;12.90;;
18780;SDS011;9519;51.890;8.970;2023-05-10T20:52:00;24.00;;;15.30;;
18780;SDS011;9519;51.890;8.970;2023-05-10T20:57:02;16.70;;;12.70;;
18780;SDS011;9519;51.890;8.970;2023-05-10T21:02:06;16.77;;;12.30;;
18780;SDS011;9519;51.890;8.970;2023-05-10T21:07:08;19.20;;;12.30;;
18780;SDS011;9519;51.890;8.970;2023-05-10T21:12:10;16.10;;;12.13;;
18780;SDS011;9519;51.890;8.970;2023-05-10T21:17:14;17.20;;;13.17;;
18780;SDS011;9519;51.890;8.970;2023-05-10T21:22:16;16.67;;;11.93;;
18780;SDS011;9519;51.890;8.970;2023-05-10T21:27:18;15.37;;;12.83;;
18780;SDS011;9519;51.890;8.970;2023-05-10T21:32:22;20.10;;;13.90;;
18780;SDS011;9519;51.890;8.970;2023-05-10T21:37:24;17.13;;;12.63;;
18780;SDS011;9519;51.890;8.970;2023-05-10T21:42:26;18.60;;;12.83;;
18780;SDS011;9519;51.890;8.970;2023-05-10T21:47:33;16.63;;;12.60;;
18780;SDS011;9519;51.890;8.970;2023-05-10T21:52:35;16.47;;;12.73;;
18780;SDS011;9519;51.890;8.970;2023-05-10T21:57:37;16.60;;;13.43;;
18780;SDS011;9519;51.890;8.970;2023-05-10T22:02:41;19.23;;;13.23;;
18780;SDS011;9519;51.890;8.970;2023-05-10T22:07:46;21.40;;;13.47;;
18780;SDS011;9519;51.890;8.970;2023-05-10T22:12:48;19.70;;;13.40;;
18780;SDS011;9519;51.890;8.970;2023-05-10T22:17:52;17.13;;;12.73;;
18780;SDS011;9519;51.890;8.970;2023-05-10T22:22:54;15.23;;;12.27;;
18780;SDS011;9519;51.890;8.970;2023-05-10T22:27:56;16.90;;;13.23;;
18780;SDS011;9519;51.890;8.970;2023-05-10T22:32:59;16.83;;;12.70;;
18780;SDS011;9519;51.890;8.970;2023-05-10T22:38:02;28.33;;;13.90;;
18780;SDS011;9519;51.890;8.970;2023-05-10T22:43:06;17.53;;;12.37;;
18780;SDS011;9519;51.890;8.970;2023-05-10T22:48:09;19.37;;;13.53;;
18780;SDS011;9519;51.890;8.970;2023-05-10T22:53:11;17.37;;;13.47;;
18780;SDS011;9519;51.890;8.970;2023-05-10T22:58:13;18.17;;;13.43;;
18780;SDS011;9519;51.890;8.970;2023-05-10T23:03:17;17.77;;;13.63;;
18780;SDS011;9519;51.890;8.970;2023-05-10T23:08:19;18.30;;;13.13;;
18780;SDS011;9519;51.890;8.970;2023-05-10T23:13:21;15.67;;;12.60;;
18780;SDS011;9519;51.890;8.970;2023-05-10T23:18:25;19.10;;;13.50;;
18780;SDS011;9519;51.890;8.970;2023-05-10T23:23:27;17.50;;;12.97;;
18780;SDS011;9519;51.890;8.970;2023-05-10T23:28:29;18.00;;;12.57;;
18780;SDS011;9519;51.890;8.970;2023-05-10T23:33:32;16.80;;;12.30;;
18780;SDS011;9519;51.890;8.970;2023-05-10T23:38:36;18.77;;;12.73;;
18780;SDS011;9519;51.890;8.970;2023-05-10T23:43:38;19.73;;;13.07;;
18780;SDS011;9519;51.890;8.970;2023-05-10T23:48:41;17.20;;;12.17;;
18780;SDS011;9519;51.890;8.970;2023-05-10T23:53:44;17.97;;;12.50;;
18780;SDS011;9519;51.890;8.970;2023-05-10T23:58:46;17.97;;;13.87;;
